PLF251 EPPW-EPPW
Flight info
| Callsign | PLF251 |
|---|---|
| Flight time | 1h 6m |
| Altitude | 1500 |
| Route | EPPWL EPPWN EPPWB |
| Aircraft | C130/M-G/LB1 |
Departure
| Time | 2026-04-20 14:52 |
|---|---|
| Airport | Powidz Military Air Base (EPPW) |
Arrival
| Time | 2026-04-20 15:59 |
|---|---|
| Airport | Powidz Military Air Base (EPPW) |
| Time | Latitude | Longitude | Altitude | Speed | Heading |
|---|---|---|---|---|---|
| 2026-04-20 14:46 | 52.38541 | 17.84277 | 371 ft | 0 kts | 192° |
| 2026-04-20 14:49 | 52.38537 | 17.84276 | 370 ft | 6 kts | 192° |
| 2026-04-20 14:49 | 52.38472 | 17.84215 | 369 ft | 15 kts | 269° |
| 2026-04-20 14:49 | 52.38482 | 17.84061 | 367 ft | 17 kts | 251° |
| 2026-04-20 14:49 | 52.38395 | 17.83976 | 368 ft | 14 kts | 198° |
| 2026-04-20 14:50 | 52.38317 | 17.83938 | 366 ft | 10 kts | 198° |
| 2026-04-20 14:50 | 52.38211 | 17.83886 | 367 ft | 21 kts | 184° |
| 2026-04-20 14:50 | 52.38139 | 17.84023 | 370 ft | 11 kts | 106° |
| 2026-04-20 14:50 | 52.38136 | 17.84037 | 368 ft | 0 kts | 106° |
| 2026-04-20 14:51 | 52.38111 | 17.84173 | 371 ft | 42 kts | 107° |
| 2026-04-20 14:51 | 52.37953 | 17.84981 | 368 ft | 105 kts | 108° |
| 2026-04-20 14:51 | 52.37689 | 17.86372 | 522 ft | 145 kts | 107° |
| 2026-04-20 14:52 | 52.37420 | 17.87954 | 920 ft | 145 kts | 105° |
| 2026-04-20 14:52 | 52.37574 | 17.89529 | 1133 ft | 153 kts | 41° |
| 2026-04-20 14:52 | 52.38550 | 17.89118 | 1109 ft | 185 kts | 294° |
| 2026-04-20 14:52 | 52.38977 | 17.87168 | 1268 ft | 178 kts | 305° |
| 2026-04-20 14:53 | 52.39907 | 17.86367 | 1405 ft | 154 kts | 11° |
| 2026-04-20 14:53 | 52.41030 | 17.86689 | 1395 ft | 169 kts | 14° |
| 2026-04-20 14:53 | 52.42197 | 17.87038 | 1500 ft | 168 kts | 12° |
| 2026-04-20 14:53 | 52.43383 | 17.87307 | 1527 ft | 174 kts | 11° |
| 2026-04-20 14:54 | 52.44548 | 17.87662 | 1547 ft | 166 kts | 20° |
| 2026-04-20 14:54 | 52.45495 | 17.88521 | 1595 ft | 146 kts | 47° |
| 2026-04-20 14:54 | 52.46057 | 17.89882 | 1416 ft | 151 kts | 65° |
| 2026-04-20 14:54 | 52.46391 | 17.91567 | 1256 ft | 163 kts | 84° |
| 2026-04-20 14:55 | 52.46277 | 17.93399 | 1386 ft | 164 kts | 99° |
| 2026-04-20 14:55 | 52.46100 | 17.95251 | 1564 ft | 167 kts | 100° |
| 2026-04-20 14:55 | 52.45833 | 17.97183 | 1506 ft | 179 kts | 106° |
| 2026-04-20 14:55 | 52.45347 | 17.99039 | 1685 ft | 174 kts | 115° |
| 2026-04-20 14:56 | 52.44825 | 18.00821 | 1772 ft | 176 kts | 112° |
| 2026-04-20 14:56 | 52.44385 | 18.02707 | 1830 ft | 179 kts | 109° |
| 2026-04-20 14:56 | 52.43973 | 18.04593 | 1905 ft | 172 kts | 108° |
| 2026-04-20 14:56 | 52.43597 | 18.06354 | 1999 ft | 155 kts | 107° |
| 2026-04-20 14:57 | 52.43264 | 18.08090 | 2043 ft | 163 kts | 105° |
| 2026-04-20 14:57 | 52.43548 | 18.09773 | 1957 ft | 170 kts | 40° |
| 2026-04-20 14:57 | 52.44683 | 18.09622 | 1934 ft | 184 kts | 322° |
| 2026-04-20 14:57 | 52.44882 | 18.07679 | 1875 ft | 186 kts | 243° |
| 2026-04-20 14:58 | 52.43828 | 18.06899 | 1891 ft | 170 kts | 163° |
| 2026-04-20 14:58 | 52.43192 | 18.08331 | 1791 ft | 168 kts | 103° |
| 2026-04-20 14:58 | 52.42544 | 18.09780 | 1869 ft | 170 kts | 168° |
| 2026-04-20 14:58 | 52.41337 | 18.09457 | 1786 ft | 184 kts | 197° |
| 2026-04-20 14:59 | 52.40131 | 18.08750 | 1915 ft | 182 kts | 196° |
| 2026-04-20 14:59 | 52.38914 | 18.08135 | 2013 ft | 190 kts | 192° |
| 2026-04-20 14:59 | 52.37593 | 18.07601 | 1947 ft | 206 kts | 188° |
| 2026-04-20 14:59 | 52.36181 | 18.07161 | 2033 ft | 210 kts | 189° |
| 2026-04-20 15:00 | 52.34767 | 18.06432 | 2076 ft | 214 kts | 211° |
| 2026-04-20 15:00 | 52.34444 | 18.04241 | 2150 ft | 222 kts | 284° |
| 2026-04-20 15:00 | 52.34827 | 18.01709 | 2022 ft | 233 kts | 285° |
| 2026-04-20 15:00 | 52.34906 | 17.99095 | 1882 ft | 233 kts | 246° |
| 2026-04-20 15:01 | 52.34277 | 17.96733 | 1888 ft | 218 kts | 242° |
| 2026-04-20 15:01 | 52.33613 | 17.94558 | 1780 ft | 211 kts | 239° |
| 2026-04-20 15:01 | 52.33347 | 17.92267 | 1629 ft | 210 kts | 279° |
| 2026-04-20 15:01 | 52.33741 | 17.90037 | 1518 ft | 199 kts | 286° |
| 2026-04-20 15:02 | 52.34130 | 17.87837 | 1545 ft | 203 kts | 285° |
| 2026-04-20 15:02 | 52.34526 | 17.85579 | 1541 ft | 208 kts | 285° |
| 2026-04-20 15:02 | 52.34926 | 17.83311 | 1629 ft | 207 kts | 285° |
| 2026-04-20 15:02 | 52.35295 | 17.81076 | 1590 ft | 195 kts | 285° |
| 2026-04-20 15:03 | 52.35679 | 17.79033 | 1472 ft | 182 kts | 286° |
| 2026-04-20 15:03 | 52.36379 | 17.77441 | 1687 ft | 165 kts | 336° |
| 2026-04-20 15:03 | 52.37472 | 17.77501 | 1696 ft | 165 kts | 34° |
| 2026-04-20 15:03 | 52.38253 | 17.78852 | 1382 ft | 166 kts | 63° |
| 2026-04-20 15:04 | 52.38710 | 17.80546 | 985 ft | 152 kts | 85° |
| 2026-04-20 15:04 | 52.38501 | 17.82160 | 528 ft | 141 kts | 107° |
| 2026-04-20 15:04 | 52.38225 | 17.83571 | 366 ft | 119 kts | 106° |
| 2026-04-20 15:04 | 52.37948 | 17.85029 | 386 ft | 160 kts | 109° |
| 2026-04-20 15:05 | 52.37580 | 17.86887 | 741 ft | 180 kts | 108° |
| 2026-04-20 15:05 | 52.37276 | 17.88885 | 1072 ft | 178 kts | 84° |
| 2026-04-20 15:05 | 52.38197 | 17.89563 | 1303 ft | 190 kts | 313° |
| 2026-04-20 15:05 | 52.38708 | 17.87556 | 1373 ft | 199 kts | 288° |
| 2026-04-20 15:06 | 52.39697 | 17.86417 | 1450 ft | 181 kts | 7° |
| 2026-04-20 15:06 | 52.40988 | 17.86753 | 1369 ft | 196 kts | 16° |
| 2026-04-20 15:06 | 52.42348 | 17.87246 | 1461 ft | 201 kts | 16° |
| 2026-04-20 15:06 | 52.43708 | 17.87789 | 1539 ft | 201 kts | 17° |
| 2026-04-20 15:07 | 52.45046 | 17.88348 | 1518 ft | 196 kts | 18° |
| 2026-04-20 15:07 | 52.45989 | 17.89544 | 1781 ft | 160 kts | 88° |
| 2026-04-20 15:07 | 52.45744 | 17.91365 | 1599 ft | 174 kts | 108° |
| 2026-04-20 15:07 | 52.45314 | 17.93262 | 1571 ft | 184 kts | 107° |
| 2026-04-20 15:08 | 52.44991 | 17.95324 | 1601 ft | 192 kts | 103° |
| 2026-04-20 15:08 | 52.44725 | 17.97489 | 1732 ft | 195 kts | 99° |
| 2026-04-20 15:08 | 52.44476 | 17.99704 | 1727 ft | 202 kts | 101° |
| 2026-04-20 15:08 | 52.44229 | 18.01970 | 1727 ft | 197 kts | 99° |
| 2026-04-20 15:09 | 52.43921 | 18.04114 | 1720 ft | 191 kts | 105° |
| 2026-04-20 15:09 | 52.43547 | 18.06067 | 1678 ft | 176 kts | 106° |
| 2026-04-20 15:09 | 52.43286 | 18.07992 | 1709 ft | 173 kts | 85° |
| 2026-04-20 15:09 | 52.44144 | 18.09263 | 1722 ft | 195 kts | 7° |
| 2026-04-20 15:10 | 52.45236 | 18.07980 | 1702 ft | 215 kts | 290° |
| 2026-04-20 15:10 | 52.44818 | 18.05791 | 1860 ft | 212 kts | 214° |
| 2026-04-20 15:10 | 52.43463 | 18.05729 | 1846 ft | 206 kts | 142° |
| 2026-04-20 15:10 | 52.43051 | 18.07778 | 1992 ft | 194 kts | 98° |
| 2026-04-20 15:11 | 52.42364 | 18.09468 | 2072 ft | 196 kts | 165° |
| 2026-04-20 15:11 | 52.40989 | 18.09047 | 1857 ft | 211 kts | 197° |
| 2026-04-20 15:11 | 52.39615 | 18.08239 | 1977 ft | 210 kts | 195° |
| 2026-04-20 15:11 | 52.38213 | 18.07517 | 2019 ft | 211 kts | 194° |
| 2026-04-20 15:12 | 52.36853 | 18.06768 | 2025 ft | 202 kts | 197° |
| 2026-04-20 15:12 | 52.35529 | 18.05950 | 1937 ft | 206 kts | 210° |
| 2026-04-20 15:12 | 52.35044 | 18.03909 | 2065 ft | 207 kts | 270° |
| 2026-04-20 15:12 | 52.35090 | 18.01475 | 1882 ft | 221 kts | 251° |
| 2026-04-20 15:13 | 52.34456 | 17.99082 | 1868 ft | 242 kts | 238° |
| 2026-04-20 15:13 | 52.33711 | 17.96545 | 1844 ft | 238 kts | 245° |
| 2026-04-20 15:13 | 52.33512 | 17.94063 | 2084 ft | 210 kts | 279° |
| 2026-04-20 15:13 | 52.33901 | 17.91863 | 1946 ft | 194 kts | 287° |
| 2026-04-20 15:14 | 52.34279 | 17.89784 | 1795 ft | 187 kts | 284° |
| 2026-04-20 15:14 | 52.34600 | 17.87797 | 1708 ft | 177 kts | 282° |
| 2026-04-20 15:14 | 52.34858 | 17.85839 | 1568 ft | 173 kts | 282° |
| 2026-04-20 15:14 | 52.35128 | 17.83927 | 1411 ft | 172 kts | 283° |
| 2026-04-20 15:15 | 52.35494 | 17.82024 | 1354 ft | 179 kts | 288° |
| 2026-04-20 15:15 | 52.35906 | 17.80037 | 1267 ft | 188 kts | 288° |
| 2026-04-20 15:15 | 52.36452 | 17.78129 | 1325 ft | 179 kts | 321° |
| 2026-04-20 15:15 | 52.37526 | 17.77883 | 1416 ft | 158 kts | 27° |
| 2026-04-20 15:16 | 52.38505 | 17.78616 | 1190 ft | 152 kts | 36° |
| 2026-04-20 15:16 | 52.38936 | 17.80080 | 970 ft | 150 kts | 103° |
| 2026-04-20 15:16 | 52.38590 | 17.81651 | 643 ft | 142 kts | 104° |
| 2026-04-20 15:16 | 52.38312 | 17.83124 | 399 ft | 132 kts | 105° |
| 2026-04-20 15:17 | 52.38048 | 17.84538 | 374 ft | 140 kts | 108° |
| 2026-04-20 15:17 | 52.37722 | 17.86204 | 625 ft | 168 kts | 107° |
| 2026-04-20 15:17 | 52.37362 | 17.88171 | 946 ft | 184 kts | 107° |
| 2026-04-20 15:17 | 52.37854 | 17.89779 | 1187 ft | 202 kts | 355° |
| 2026-04-20 15:18 | 52.38684 | 17.87962 | 1193 ft | 218 kts | 287° |
| 2026-04-20 15:18 | 52.39292 | 17.85904 | 1670 ft | 181 kts | 341° |
| 2026-04-20 15:18 | 52.40444 | 17.86305 | 1471 ft | 190 kts | 20° |
| 2026-04-20 15:18 | 52.41687 | 17.86936 | 1583 ft | 191 kts | 18° |
| 2026-04-20 15:19 | 52.43007 | 17.87564 | 1613 ft | 201 kts | 19° |
| 2026-04-20 15:19 | 52.44370 | 17.88160 | 1634 ft | 205 kts | 19° |
| 2026-04-20 15:19 | 52.45758 | 17.88770 | 1600 ft | 209 kts | 15° |
| 2026-04-20 15:19 | 52.47180 | 17.88801 | 1644 ft | 214 kts | 329° |
| 2026-04-20 15:20 | 52.47690 | 17.86661 | 1519 ft | 221 kts | 249° |
| 2026-04-20 15:20 | 52.46629 | 17.85085 | 1600 ft | 197 kts | 197° |
| 2026-04-20 15:20 | 52.45361 | 17.84357 | 1671 ft | 191 kts | 194° |
| 2026-04-20 15:20 | 52.44082 | 17.84197 | 1636 ft | 194 kts | 152° |
| 2026-04-20 15:21 | 52.43542 | 17.86099 | 1584 ft | 200 kts | 83° |
| 2026-04-20 15:21 | 52.44387 | 17.87939 | 1408 ft | 213 kts | 39° |
| 2026-04-20 15:21 | 52.45635 | 17.89094 | 1633 ft | 201 kts | 11° |
| 2026-04-20 15:21 | 52.46869 | 17.88244 | 1695 ft | 212 kts | 303° |
| 2026-04-20 15:22 | 52.46768 | 17.85943 | 1572 ft | 216 kts | 225° |
| 2026-04-20 15:22 | 52.45450 | 17.85004 | 1775 ft | 205 kts | 193° |
| 2026-04-20 15:22 | 52.44046 | 17.84431 | 1699 ft | 208 kts | 178° |
| 2026-04-20 15:22 | 52.43005 | 17.85806 | 1669 ft | 209 kts | 102° |
| 2026-04-20 15:23 | 52.43620 | 17.87720 | 1622 ft | 208 kts | 28° |
| 2026-04-20 15:23 | 52.44947 | 17.88614 | 1544 ft | 203 kts | 25° |
| 2026-04-20 15:23 | 52.46305 | 17.89163 | 1633 ft | 206 kts | 356° |
| 2026-04-20 15:23 | 52.47555 | 17.88032 | 1768 ft | 214 kts | 309° |
| 2026-04-20 15:24 | 52.47982 | 17.85715 | 1804 ft | 222 kts | 265° |
| 2026-04-20 15:24 | 52.47338 | 17.83481 | 1893 ft | 216 kts | 218° |
| 2026-04-20 15:24 | 52.46017 | 17.82708 | 2107 ft | 200 kts | 173° |
| 2026-04-20 15:24 | 52.44843 | 17.83679 | 2318 ft | 190 kts | 127° |
| 2026-04-20 15:25 | 52.44420 | 17.85744 | 2210 ft | 202 kts | 87° |
| 2026-04-20 15:25 | 52.44947 | 17.87896 | 2102 ft | 214 kts | 50° |
| 2026-04-20 15:25 | 52.45815 | 17.89857 | 2075 ft | 208 kts | 73° |
| 2026-04-20 15:25 | 52.45819 | 17.92173 | 1903 ft | 208 kts | 99° |
| 2026-04-20 15:26 | 52.45538 | 17.94512 | 1828 ft | 211 kts | 102° |
| 2026-04-20 15:26 | 52.45250 | 17.96903 | 1659 ft | 216 kts | 100° |
| 2026-04-20 15:26 | 52.44954 | 17.99317 | 1553 ft | 216 kts | 101° |
| 2026-04-20 15:26 | 52.44597 | 18.01677 | 1529 ft | 213 kts | 103° |
| 2026-04-20 15:27 | 52.44230 | 18.03966 | 1613 ft | 206 kts | 104° |
| 2026-04-20 15:27 | 52.43856 | 18.06178 | 1782 ft | 199 kts | 105° |
| 2026-04-20 15:27 | 52.43525 | 18.08403 | 1698 ft | 203 kts | 83° |
| 2026-04-20 15:27 | 52.44499 | 18.09849 | 1598 ft | 215 kts | 2° |
| 2026-04-20 15:28 | 52.45654 | 18.08388 | 1354 ft | 232 kts | 285° |
| 2026-04-20 15:28 | 52.45110 | 18.06135 | 1447 ft | 222 kts | 208° |
| 2026-04-20 15:28 | 52.43732 | 18.06153 | 1753 ft | 194 kts | 144° |
| 2026-04-20 15:28 | 52.43191 | 18.08074 | 1676 ft | 196 kts | 93° |
| 2026-04-20 15:29 | 52.43524 | 18.10151 | 1783 ft | 195 kts | 46° |
| 2026-04-20 15:29 | 52.44814 | 18.10304 | 1640 ft | 216 kts | 323° |
| 2026-04-20 15:29 | 52.45168 | 18.08017 | 1642 ft | 220 kts | 251° |
| 2026-04-20 15:29 | 52.44165 | 18.06303 | 1617 ft | 214 kts | 187° |
| 2026-04-20 15:30 | 52.42960 | 18.07210 | 1612 ft | 196 kts | 114° |
| 2026-04-20 15:30 | 52.43424 | 18.09103 | 1356 ft | 215 kts | 18° |
| 2026-04-20 15:30 | 52.44735 | 18.08138 | 1483 ft | 234 kts | 304° |
| 2026-04-20 15:30 | 52.45440 | 18.05677 | 1474 ft | 239 kts | 288° |
| 2026-04-20 15:31 | 52.45879 | 18.03119 | 1523 ft | 229 kts | 285° |
| 2026-04-20 15:31 | 52.46216 | 18.00607 | 1487 ft | 225 kts | 282° |
| 2026-04-20 15:31 | 52.46534 | 17.98144 | 1638 ft | 220 kts | 283° |
| 2026-04-20 15:31 | 52.46840 | 17.95686 | 1656 ft | 218 kts | 282° |
| 2026-04-20 15:32 | 52.47088 | 17.93287 | 1864 ft | 206 kts | 279° |
| 2026-04-20 15:32 | 52.47287 | 17.91031 | 2058 ft | 194 kts | 275° |
| 2026-04-20 15:32 | 52.46917 | 17.89099 | 2138 ft | 177 kts | 215° |
| 2026-04-20 15:32 | 52.45768 | 17.89058 | 1999 ft | 182 kts | 140° |
| 2026-04-20 15:33 | 52.45419 | 17.90915 | 1993 ft | 187 kts | 68° |
| 2026-04-20 15:33 | 52.46518 | 17.91943 | 1921 ft | 205 kts | 352° |
| 2026-04-20 15:33 | 52.47414 | 17.90248 | 1860 ft | 216 kts | 274° |
| 2026-04-20 15:33 | 52.46772 | 17.88191 | 1920 ft | 207 kts | 202° |
| 2026-04-20 15:34 | 52.45633 | 17.88895 | 1901 ft | 189 kts | 114° |
| 2026-04-20 15:34 | 52.45680 | 17.90874 | 2116 ft | 184 kts | 51° |
| 2026-04-20 15:34 | 52.46885 | 17.91603 | 2165 ft | 202 kts | 353° |
| 2026-04-20 15:34 | 52.47964 | 17.90158 | 2061 ft | 217 kts | 291° |
| 2026-04-20 15:35 | 52.47501 | 17.87958 | 1618 ft | 233 kts | 202° |
| 2026-04-20 15:35 | 52.46023 | 17.88312 | 1484 ft | 222 kts | 157° |
| 2026-04-20 15:35 | 52.44594 | 17.88740 | 1717 ft | 202 kts | 175° |
| 2026-04-20 15:35 | 52.43267 | 17.88364 | 1608 ft | 193 kts | 194° |
| 2026-04-20 15:36 | 52.42005 | 17.87741 | 1477 ft | 183 kts | 193° |
| 2026-04-20 15:36 | 52.40886 | 17.86908 | 1450 ft | 178 kts | 229° |
| 2026-04-20 15:36 | 52.40606 | 17.85010 | 1338 ft | 175 kts | 279° |
| 2026-04-20 15:36 | 52.40791 | 17.82950 | 1322 ft | 187 kts | 282° |
| 2026-04-20 15:37 | 52.40950 | 17.80829 | 1184 ft | 194 kts | 262° |
| 2026-04-20 15:37 | 52.40078 | 17.79394 | 1323 ft | 186 kts | 183° |
| 2026-04-20 15:37 | 52.38962 | 17.80163 | 1189 ft | 171 kts | 124° |
| 2026-04-20 15:37 | 52.38532 | 17.81939 | 632 ft | 166 kts | 105° |
| 2026-04-20 15:38 | 52.38208 | 17.83662 | 369 ft | 147 kts | 107° |
| 2026-04-20 15:38 | 52.37895 | 17.85323 | 511 ft | 165 kts | 107° |
| 2026-04-20 15:38 | 52.37553 | 17.87138 | 819 ft | 165 kts | 107° |
| 2026-04-20 15:38 | 52.37206 | 17.88898 | 1098 ft | 160 kts | 125° |
| 2026-04-20 15:39 | 52.36232 | 17.89313 | 1589 ft | 157 kts | 203° |
| 2026-04-20 15:39 | 52.35645 | 17.87889 | 1883 ft | 162 kts | 261° |
| 2026-04-20 15:39 | 52.35645 | 17.86666 | 1809 ft | 165 kts | 282° |
| 2026-04-20 15:39 | 52.35937 | 17.84729 | 1740 ft | 182 kts | 285° |
| 2026-04-20 15:40 | 52.36286 | 17.82713 | 1740 ft | 181 kts | 284° |
| 2026-04-20 15:40 | 52.36598 | 17.80842 | 1909 ft | 168 kts | 285° |
| 2026-04-20 15:40 | 52.36840 | 17.79105 | 2133 ft | 141 kts | 282° |
| 2026-04-20 15:40 | 52.37011 | 17.77599 | 2224 ft | 131 kts | 283° |
| 2026-04-20 15:41 | 52.37282 | 17.76215 | 2292 ft | 123 kts | 310° |
| 2026-04-20 15:41 | 52.37974 | 17.75712 | 2391 ft | 108 kts | 8° |
| 2026-04-20 15:41 | 52.38734 | 17.75877 | 2363 ft | 112 kts | 19° |
| 2026-04-20 15:41 | 52.39380 | 17.76492 | 2429 ft | 99 kts | 54° |
| 2026-04-20 15:42 | 52.39393 | 17.77588 | 2362 ft | 112 kts | 102° |
| 2026-04-20 15:42 | 52.39153 | 17.78796 | 2240 ft | 111 kts | 107° |
| 2026-04-20 15:42 | 52.38920 | 17.80007 | 2078 ft | 111 kts | 104° |
| 2026-04-20 15:42 | 52.38688 | 17.81226 | 1505 ft | 126 kts | 108° |
| 2026-04-20 15:43 | 52.38384 | 17.82700 | 553 ft | 143 kts | 105° |
| 2026-04-20 15:43 | 52.38120 | 17.84170 | 383 ft | 138 kts | 107° |
| 2026-04-20 15:43 | 52.37786 | 17.85903 | 637 ft | 177 kts | 107° |
| 2026-04-20 15:43 | 52.37419 | 17.87850 | 1192 ft | 173 kts | 107° |
| 2026-04-20 15:44 | 52.36911 | 17.89583 | 1633 ft | 173 kts | 135° |
| 2026-04-20 15:44 | 52.35755 | 17.90222 | 1981 ft | 193 kts | 184° |
| 2026-04-20 15:44 | 52.34576 | 17.89095 | 2299 ft | 208 kts | 229° |
| 2026-04-20 15:44 | 52.34153 | 17.86847 | 2591 ft | 214 kts | 275° |
| 2026-04-20 15:45 | 52.34530 | 17.84453 | 2710 ft | 220 kts | 287° |
| 2026-04-20 15:45 | 52.34998 | 17.82038 | 2653 ft | 227 kts | 290° |
| 2026-04-20 15:45 | 52.35500 | 17.79555 | 2588 ft | 233 kts | 289° |
| 2026-04-20 15:45 | 52.35996 | 17.77210 | 2728 ft | 197 kts | 297° |
| 2026-04-20 15:46 | 52.36849 | 17.76051 | 2985 ft | 146 kts | 357° |
| 2026-04-20 15:46 | 52.37830 | 17.76120 | 3005 ft | 137 kts | 15° |
| 2026-04-20 15:46 | 52.38786 | 17.76430 | 2836 ft | 143 kts | 19° |
| 2026-04-20 15:46 | 52.39435 | 17.77285 | 2890 ft | 112 kts | 81° |
| 2026-04-20 15:47 | 52.39313 | 17.78615 | 2649 ft | 128 kts | 105° |
| 2026-04-20 15:47 | 52.38988 | 17.79981 | 2480 ft | 126 kts | 106° |
| 2026-04-20 15:47 | 52.38711 | 17.81266 | 1924 ft | 126 kts | 110° |
| 2026-04-20 15:47 | 52.38385 | 17.82726 | 728 ft | 151 kts | 106° |
| 2026-04-20 15:48 | 52.38090 | 17.84292 | 369 ft | 131 kts | 106° |
| 2026-04-20 15:48 | 52.37785 | 17.85881 | 619 ft | 156 kts | 107° |
| 2026-04-20 15:48 | 52.37474 | 17.87617 | 957 ft | 164 kts | 105° |
| 2026-04-20 15:48 | 52.37142 | 17.89542 | 1115 ft | 185 kts | 108° |
| 2026-04-20 15:49 | 52.36801 | 17.91610 | 1450 ft | 191 kts | 104° |
| 2026-04-20 15:49 | 52.36491 | 17.93741 | 1695 ft | 195 kts | 103° |
| 2026-04-20 15:49 | 52.36159 | 17.95929 | 1859 ft | 200 kts | 105° |
| 2026-04-20 15:49 | 52.35797 | 17.98152 | 2080 ft | 202 kts | 104° |
| 2026-04-20 15:50 | 52.35489 | 18.00403 | 2282 ft | 206 kts | 102° |
| 2026-04-20 15:50 | 52.35146 | 18.02721 | 2279 ft | 215 kts | 103° |
| 2026-04-20 15:50 | 52.34188 | 18.04501 | 2211 ft | 226 kts | 164° |
| 2026-04-20 15:50 | 52.32644 | 18.04042 | 2249 ft | 230 kts | 198° |
| 2026-04-20 15:51 | 52.31156 | 18.03088 | 2164 ft | 227 kts | 199° |
| 2026-04-20 15:51 | 52.29703 | 18.02138 | 2101 ft | 225 kts | 199° |
| 2026-04-20 15:51 | 52.28621 | 18.00395 | 2136 ft | 225 kts | 254° |
| 2026-04-20 15:51 | 52.28782 | 17.97940 | 2235 ft | 219 kts | 290° |
| 2026-04-20 15:52 | 52.29191 | 17.95539 | 2213 ft | 222 kts | 284° |
| 2026-04-20 15:52 | 52.29562 | 17.93120 | 2334 ft | 217 kts | 284° |
| 2026-04-20 15:52 | 52.29954 | 17.90686 | 2171 ft | 226 kts | 285° |
| 2026-04-20 15:53 | 52.30676 | 17.85801 | 2381 ft | 219 kts | 283° |
| 2026-04-20 15:53 | 52.30957 | 17.83395 | 2544 ft | 212 kts | 280° |
| 2026-04-20 15:53 | 52.31204 | 17.81035 | 2585 ft | 214 kts | 272° |
| 2026-04-20 15:53 | 52.30407 | 17.79223 | 2546 ft | 203 kts | 197° |
| 2026-04-20 15:54 | 52.29193 | 17.79781 | 2523 ft | 186 kts | 129° |
| 2026-04-20 15:54 | 52.29174 | 17.81706 | 2459 ft | 184 kts | 56° |
| 2026-04-20 15:54 | 52.30388 | 17.82169 | 2404 ft | 202 kts | 343° |
| 2026-04-20 15:54 | 52.31400 | 17.80519 | 2410 ft | 207 kts | 301° |
| 2026-04-20 15:55 | 52.31866 | 17.78343 | 2568 ft | 203 kts | 287° |
| 2026-04-20 15:55 | 52.32212 | 17.76112 | 2656 ft | 199 kts | 285° |
| 2026-04-20 15:55 | 52.32526 | 17.73973 | 2700 ft | 190 kts | 285° |
| 2026-04-20 15:55 | 52.33143 | 17.72203 | 2865 ft | 168 kts | 338° |
| 2026-04-20 15:56 | 52.34328 | 17.72139 | 2691 ft | 190 kts | 18° |
| 2026-04-20 15:56 | 52.35654 | 17.72669 | 2650 ft | 203 kts | 18° |
| 2026-04-20 15:56 | 52.37051 | 17.73211 | 2635 ft | 204 kts | 18° |
| 2026-04-20 15:56 | 52.38304 | 17.73740 | 2496 ft | 174 kts | 20° |
| 2026-04-20 15:57 | 52.39319 | 17.74568 | 2174 ft | 157 kts | 47° |
| 2026-04-20 15:57 | 52.39733 | 17.76066 | 1904 ft | 147 kts | 96° |
| 2026-04-20 15:57 | 52.39433 | 17.77521 | 1573 ft | 125 kts | 113° |
| 2026-04-20 15:57 | 52.39146 | 17.78814 | 1183 ft | 111 kts | 105° |
| 2026-04-20 15:58 | 52.38927 | 17.79951 | 937 ft | 101 kts | 109° |
| 2026-04-20 15:58 | 52.38715 | 17.81043 | 686 ft | 100 kts | 105° |
| 2026-04-20 15:58 | 52.38508 | 17.82096 | 528 ft | 94 kts | 108° |
| 2026-04-20 15:58 | 52.38321 | 17.83051 | 365 ft | 72 kts | 105° |
| 2026-04-20 15:59 | 52.38246 | 17.83447 | 364 ft | 25 kts | 105° |
| 2026-04-20 15:59 | 52.38203 | 17.83679 | 363 ft | 18 kts | 107° |
| 2026-04-20 15:59 | 52.38190 | 17.83838 | 366 ft | 9 kts | 63° |
| 2026-04-20 15:59 | 52.38250 | 17.83900 | 370 ft | 14 kts | 20° |
| 2026-04-20 16:00 | 52.38332 | 17.83943 | 366 ft | 11 kts | 18° |
| 2026-04-20 16:00 | 52.38400 | 17.83976 | 365 ft | 11 kts | 15° |
| 2026-04-20 16:00 | 52.38484 | 17.84042 | 369 ft | 10 kts | 66° |
| 2026-04-20 16:00 | 52.38483 | 17.84173 | 367 ft | 13 kts | 57° |
| 2026-04-20 16:01 | 52.38560 | 17.84228 | 369 ft | 4 kts | 19° |
| 2026-04-20 16:01 | 52.38572 | 17.84235 | 371 ft | 0 kts | 19° |